Time;durP1;ratioP1;P1;durP2;ratioP2;P2;SDS_P1;SDS_P2;PMS_P1;PMS_P2;Temp;Humidity;BMP_temperature;BMP_pressure;BME280_temperature;BME280_humidity;BME280_pressure;Samples;Min_cycle;Max_cycle;Signal;HPM_P1;HPM_P2
2022/08/06 00:02:27;;;;;;;3.10;1.90;;;17.90;99.90;;;;;;5018535;28;20018;-82
2022/08/06 00:04:54;;;;;;;3.05;1.90;;;17.80;99.90;;;;;;5021257;28;20049;-81
2022/08/06 00:07:20;;;;;;;3.17;2.33;;;17.80;99.90;;;;;;5016269;28;20431;-77
2022/08/06 00:09:45;;;;;;;2.15;1.80;;;17.80;99.90;;;;;;5013695;28;20164;-77
2022/08/06 00:12:11;;;;;;;3.47;1.90;;;17.70;99.90;;;;;;5013979;28;20021;-78
2022/08/06 00:14:37;;;;;;;4.35;2.17;;;17.90;99.90;;;;;;5014671;28;20018;-77
2022/08/06 00:17:03;;;;;;;2.70;2.00;;;17.80;99.90;;;;;;5013647;28;20076;-78
2022/08/06 00:19:29;;;;;;;4.20;1.80;;;17.70;99.90;;;;;;5014973;28;20026;-77
2022/08/06 00:21:54;;;;;;;2.67;2.25;;;17.80;99.90;;;;;;5013932;28;20060;-76
2022/08/06 00:24:20;;;;;;;1.80;1.67;;;17.90;99.90;;;;;;5014104;28;20030;-78
2022/08/06 00:26:47;;;;;;;3.25;2.10;;;17.60;99.90;;;;;;5013826;28;20056;-76
2022/08/06 00:29:13;;;;;;;3.65;2.10;;;17.50;99.90;;;;;;5013721;28;20026;-76
2022/08/06 00:31:38;;;;;;;4.22;1.85;;;17.60;99.90;;;;;;5011794;28;20033;-77
2022/08/06 00:34:04;;;;;;;3.97;2.20;;;17.70;99.90;;;;;;5013842;28;20034;-78
2022/08/06 00:36:31;;;;;;;2.45;2.20;;;17.80;99.90;;;;;;4999499;28;20026;-75
2022/08/06 00:38:58;;;;;;;3.13;2.05;;;17.60;99.90;;;;;;5012479;28;20498;-76
2022/08/06 00:41:24;;;;;;;4.72;2.25;;;17.60;99.90;;;;;;5015065;28;20022;-78
2022/08/06 00:43:50;;;;;;;3.42;2.35;;;17.60;99.90;;;;;;5015034;28;20028;-78
2022/08/06 00:46:16;;;;;;;3.03;2.00;;;17.30;99.90;;;;;;5016079;28;20029;-78
2022/08/06 00:48:41;;;;;;;3.40;2.65;;;17.40;99.90;;;;;;5014453;28;20034;-76
2022/08/06 00:51:07;;;;;;;2.85;2.10;;;17.30;99.90;;;;;;5013439;28;20038;-77
2022/08/06 00:53:33;;;;;;;2.47;2.05;;;17.10;99.90;;;;;;5014733;28;20034;-77
2022/08/06 00:56:00;;;;;;;3.25;2.22;;;17.10;99.90;;;;;;5006649;28;20562;-78
2022/08/06 00:58:26;;;;;;;5.68;2.45;;;16.80;99.90;;;;;;5007367;28;20076;-77
2022/08/06 01:00:52;;;;;;;3.83;2.25;;;17.10;99.90;;;;;;5006857;28;20022;-78
2022/08/06 01:03:17;;;;;;;3.58;2.38;;;16.90;99.90;;;;;;4996786;28;20037;-76
2022/08/06 01:05:43;;;;;;;2.40;1.98;;;16.90;99.90;;;;;;5011646;28;20030;-76
2022/08/06 01:08:10;;;;;;;5.60;2.30;;;17.10;99.90;;;;;;5013779;28;20455;-77
2022/08/06 01:10:36;;;;;;;3.78;2.58;;;17.10;99.90;;;;;;5012851;28;20247;-76
2022/08/06 01:13:02;;;;;;;3.60;2.63;;;16.90;99.90;;;;;;5013363;28;20026;-78
2022/08/06 01:15:27;;;;;;;2.95;2.20;;;16.90;99.90;;;;;;5004033;28;20051;-78
2022/08/06 01:17:58;;;;;;;3.40;2.40;;;16.90;99.90;;;;;;4996962;28;20026;-76
2022/08/06 01:20:58;;;;;;;4.22;2.70;;;16.80;99.90;;;;;;5013126;28;20525;-77
2022/08/06 01:23:41;;;;;;;3.05;2.72;;;16.60;99.90;;;;;;5013461;28;20026;-79
2022/08/06 01:26:19;;;;;;;4.30;2.92;;;16.60;99.90;;;;;;5013657;28;20419;-76
2022/08/06 01:29:20;;;;;;;3.72;2.53;;;16.40;99.90;;;;;;5013711;28;20029;-78
2022/08/06 01:31:53;;;;;;;3.88;2.65;;;16.50;99.90;;;;;;5013027;28;20499;-78
2022/08/06 01:34:30;;;;;;;3.17;2.70;;;16.30;99.90;;;;;;5012502;28;20037;-78
2022/08/06 01:37:21;;;;;;;4.80;2.80;;;16.30;99.90;;;;;;5003112;28;20403;-77
2022/08/06 01:39:52;;;;;;;4.15;2.85;;;16.40;99.90;;;;;;5015333;28;20018;-76
2022/08/06 01:42:20;;;;;;;4.28;2.72;;;16.30;99.90;;;;;;4999237;28;20031;-77
2022/08/06 01:44:48;;;;;;;3.30;2.92;;;16.30;99.90;;;;;;5013411;28;20080;-77
2022/08/06 01:47:17;;;;;;;4.00;2.75;;;16.00;99.90;;;;;;5013245;28;20034;-77
2022/08/06 01:49:47;;;;;;;4.85;3.00;;;16.40;99.90;;;;;;5000996;28;20381;-78
2022/08/06 01:52:14;;;;;;;3.95;2.92;;;16.00;99.90;;;;;;4995938;28;20026;-77
2022/08/06 01:54:44;;;;;;;4.80;3.22;;;16.10;99.90;;;;;;5000956;28;20464;-76
2022/08/06 01:57:11;;;;;;;6.47;3.33;;;16.00;99.90;;;;;;5008415;28;20423;-76
2022/08/06 01:59:42;;;;;;;4.85;2.90;;;16.10;99.90;;;;;;5013050;28;20022;-77
2022/08/06 02:02:14;;;;;;;3.15;2.67;;;16.00;99.90;;;;;;4998993;28;20030;-76
2022/08/06 02:04:42;;;;;;;4.50;2.92;;;16.00;99.90;;;;;;5011778;28;20391;-77
2022/08/06 02:07:11;;;;;;;4.90;2.95;;;16.00;99.90;;;;;;5013566;28;20446;-76
2022/08/06 02:09:40;;;;;;;5.40;3.20;;;16.40;99.90;;;;;;5013065;28;20029;-76
2022/08/06 02:12:11;;;;;;;7.13;2.80;;;16.10;99.90;;;;;;5012440;28;20064;-77
2022/08/06 02:14:45;;;;;;;3.88;2.83;;;16.30;99.90;;;;;;5014220;28;20148;-77
2022/08/06 02:17:14;;;;;;;4.38;2.78;;;16.60;99.90;;;;;;5013471;28;20026;-77
2022/08/06 02:19:43;;;;;;;4.35;2.85;;;16.40;99.90;;;;;;5012668;28;20026;-78
2022/08/06 02:22:09;;;;;;;3.25;2.95;;;16.80;99.90;;;;;;5011955;28;20022;-76
2022/08/06 02:24:35;;;;;;;3.70;2.78;;;16.50;99.90;;;;;;4999748;28;20027;-77
2022/08/06 02:27:02;;;;;;;3.88;2.95;;;16.50;99.90;;;;;;5013068;28;20022;-76
2022/08/06 02:29:29;;;;;;;3.65;2.58;;;16.50;99.90;;;;;;5012525;28;20072;-77
2022/08/06 02:31:55;;;;;;;4.93;3.10;;;16.40;99.90;;;;;;5010877;28;20029;-77
2022/08/06 02:34:21;;;;;;;6.00;2.90;;;16.20;99.90;;;;;;5011633;28;20085;-75
2022/08/06 02:36:57;;;;;;;5.07;3.33;;;16.20;99.90;;;;;;5000644;28;20030;-77
2022/08/06 02:39:26;;;;;;;;;;;16.20;99.90;;;;;;5012086;28;20022;-79
2022/08/06 02:42:08;;;;;;;3.90;3.00;;;16.10;99.90;;;;;;4994161;28;19910;-78
2022/08/06 02:44:53;;;;;;;3.78;3.08;;;16.00;99.90;;;;;;5012137;28;20018;-76
2022/08/06 02:47:38;;;;;;;3.85;3.03;;;16.10;99.90;;;;;;5011775;28;20431;-76
2022/08/06 02:50:05;;;;;;;3.75;3.08;;;16.10;99.90;;;;;;5012169;28;20395;-77
2022/08/06 02:52:52;;;;;;;3.83;3.10;;;16.10;99.90;;;;;;5003682;28;20050;-77
2022/08/06 02:55:22;;;;;;;6.50;3.53;;;16.30;99.90;;;;;;4992778;28;20396;-77
2022/08/06 02:57:52;;;;;;;3.78;2.88;;;16.60;99.90;;;;;;5016572;28;20029;-77
2022/08/06 03:00:18;;;;;;;4.00;3.10;;;16.30;99.90;;;;;;5015584;28;20022;-77
2022/08/06 03:02:47;;;;;;;4.63;3.17;;;16.20;99.90;;;;;;5014197;28;20022;-79
2022/08/06 03:05:18;;;;;;;4.63;3.30;;;16.50;99.90;;;;;;5015354;28;20037;-78
2022/08/06 03:07:48;;;;;;;7.57;3.88;;;16.00;99.90;;;;;;5014478;28;20384;-80
2022/08/06 03:10:17;;;;;;;4.13;3.33;;;16.00;99.90;;;;;;5016319;28;20407;-78
2022/08/06 03:12:43;;;;;;;4.97;3.75;;;16.00;99.90;;;;;;5016750;28;20504;-79
2022/08/06 03:15:10;;;;;;;4.15;3.58;;;15.90;99.90;;;;;;5019781;28;20026;-80
2022/08/06 03:17:38;;;;;;;4.07;3.10;;;15.80;99.90;;;;;;5015543;28;20061;-80
2022/08/06 03:20:05;;;;;;;3.88;3.25;;;16.10;99.90;;;;;;5018053;28;20116;-79
2022/08/06 03:22:32;;;;;;;4.43;3.50;;;15.90;99.90;;;;;;5015080;28;20030;-80
2022/08/06 03:25:00;;;;;;;4.07;3.40;;;15.80;99.90;;;;;;5016351;28;20026;-80
2022/08/06 03:27:26;;;;;;;4.30;3.53;;;15.60;99.90;;;;;;5033815;28;20021;-76
2022/08/06 03:29:53;;;;;;;5.22;3.45;;;15.80;99.90;;;;;;5040925;28;20025;-77
2022/08/06 03:32:19;;;;;;;3.97;3.25;;;15.90;99.90;;;;;;5038283;28;20506;-80
2022/08/06 03:34:46;;;;;;;4.57;3.30;;;15.80;99.90;;;;;;5035697;28;20031;-79
2022/08/06 03:37:12;;;;;;;5.00;3.53;;;15.80;99.90;;;;;;5031385;28;20118;-78
2022/08/06 03:39:41;;;;;;;4.00;3.55;;;15.80;99.90;;;;;;5039984;28;20034;-76
2022/08/06 03:42:07;;;;;;;4.18;3.78;;;16.10;99.90;;;;;;5025597;28;20124;-80
2022/08/06 03:44:33;;;;;;;5.13;3.50;;;15.90;99.90;;;;;;5016296;28;20026;-79
2022/08/06 03:47:03;;;;;;;5.20;3.67;;;15.70;99.90;;;;;;5018556;28;20518;-79
2022/08/06 03:49:44;;;;;;;3.58;3.28;;;16.00;99.90;;;;;;5018011;28;20029;-80
2022/08/06 03:52:17;;;;;;;4.60;3.40;;;15.90;99.90;;;;;;5021149;28;20029;-80
2022/08/06 03:54:47;;;;;;;3.85;3.42;;;15.80;99.90;;;;;;5023925;28;20029;-81
2022/08/06 03:57:19;;;;;;;4.53;3.85;;;15.70;99.90;;;;;;5020179;28;20041;-81
2022/08/06 03:59:48;;;;;;;4.00;3.50;;;15.50;99.90;;;;;;5024668;28;20132;-78
2022/08/06 04:02:16;;;;;;;5.80;4.13;;;15.50;99.90;;;;;;5016453;28;20039;-80
2022/08/06 04:04:43;;;;;;;4.82;3.72;;;15.50;99.90;;;;;;5029494;28;20022;-80
2022/08/06 04:07:10;;;;;;;4.22;3.40;;;15.70;99.90;;;;;;5020524;28;20045;-78
2022/08/06 04:09:36;;;;;;;6.30;3.08;;;15.80;99.90;;;;;;5015110;28;20026;-77
2022/08/06 04:12:03;;;;;;;3.88;2.85;;;15.60;99.90;;;;;;5013908;28;20569;-78
2022/08/06 04:14:30;;;;;;;5.07;2.42;;;15.50;99.90;;;;;;5020176;28;20030;-78
2022/08/06 04:16:57;;;;;;;4.28;2.58;;;15.80;99.90;;;;;;5014345;28;20427;-78
2022/08/06 04:19:23;;;;;;;3.55;2.58;;;15.60;99.90;;;;;;5015871;28;20022;-77
2022/08/06 04:21:49;;;;;;;4.63;2.67;;;15.80;99.90;;;;;;5015065;28;20030;-79
2022/08/06 04:24:15;;;;;;;4.63;2.70;;;15.90;99.90;;;;;;5007434;28;20488;-78
2022/08/06 04:26:44;;;;;;;2.88;2.42;;;16.00;99.90;;;;;;5012922;28;20033;-79
2022/08/06 04:29:12;;;;;;;3.60;2.22;;;15.70;99.90;;;;;;5014162;28;20030;-77
2022/08/06 04:31:39;;;;;;;2.55;2.35;;;15.80;99.90;;;;;;5002925;28;20487;-77
2022/08/06 04:34:06;;;;;;;4.13;2.20;;;15.80;99.90;;;;;;5015698;28;20029;-77
2022/08/06 04:36:33;;;;;;;2.97;2.10;;;15.60;99.90;;;;;;5017757;28;20022;-78
2022/08/06 04:38:58;;;;;;;4.13;2.10;;;15.70;99.90;;;;;;5029321;22;20044;-76
2022/08/06 04:41:25;;;;;;;5.63;1.77;;;15.70;99.90;;;;;;5015514;28;20101;-76
2022/08/06 04:43:51;;;;;;;3.15;1.88;;;15.80;99.90;;;;;;5017386;28;20026;-78
2022/08/06 04:46:17;;;;;;;3.03;1.63;;;15.90;99.90;;;;;;5039114;28;20425;-77
2022/08/06 04:48:43;;;;;;;2.72;1.55;;;15.80;99.90;;;;;;5027917;28;20066;-78
2022/08/06 04:51:08;;;;;;;1.95;1.60;;;15.70;99.90;;;;;;5016898;28;20101;-77
2022/08/06 04:53:41;;;;;;;3.78;1.67;;;15.60;99.90;;;;;;5019201;28;20033;-78
2022/08/06 04:56:08;;;;;;;4.00;1.60;;;15.60;99.90;;;;;;5014243;28;20022;-77
2022/08/06 04:58:34;;;;;;;4.60;1.60;;;15.50;99.90;;;;;;4998703;28;20073;-78
2022/08/06 05:01:01;;;;;;;2.20;1.20;;;15.40;99.90;;;;;;5003139;28;20029;-77
2022/08/06 05:03:27;;;;;;;2.72;1.30;;;15.60;99.90;;;;;;5013339;28;20430;-76
2022/08/06 05:06:08;;;;;;;3.35;1.42;;;15.50;99.90;;;;;;5013252;28;20063;-76
2022/08/06 05:08:38;;;;;;;2.38;1.17;;;15.40;99.90;;;;;;5012590;28;20124;-77
2022/08/06 05:11:15;;;;;;;1.58;1.20;;;15.40;99.90;;;;;;5013329;28;20029;-77
2022/08/06 05:13:44;;;;;;;2.42;1.10;;;15.50;99.90;;;;;;5015539;28;20033;-77
2022/08/06 05:16:12;;;;;;;3.85;1.45;;;15.80;99.90;;;;;;5014716;28;20447;-77
2022/08/06 05:18:49;;;;;;;2.00;1.17;;;15.70;99.90;;;;;;5013736;28;20531;-77
2022/08/06 05:21:21;;;;;;;2.63;1.00;;;15.50;99.90;;;;;;5013693;28;20054;-77
2022/08/06 05:23:50;;;;;;;2.65;1.30;;;15.50;99.90;;;;;;5014133;28;20025;-77
2022/08/06 05:26:16;;;;;;;2.13;1.17;;;15.50;99.90;;;;;;5013957;28;20030;-78
2022/08/06 05:28:42;;;;;;;1.60;1.05;;;15.60;99.90;;;;;;5013166;28;20084;-77
2022/08/06 05:31:08;;;;;;;2.83;1.17;;;15.50;99.90;;;;;;5014979;28;20034;-78
2022/08/06 05:33:38;;;;;;;2.38;0.90;;;15.40;99.90;;;;;;5013779;28;20073;-78
2022/08/06 05:36:11;;;;;;;2.53;1.25;;;15.30;99.90;;;;;;5001126;28;20113;-77
2022/08/06 05:38:39;;;;;;;1.23;0.90;;;15.30;99.90;;;;;;5015218;28;20109;-77
2022/08/06 05:41:07;;;;;;;2.88;1.10;;;15.50;99.90;;;;;;5011340;28;20113;-78
2022/08/06 05:43:33;;;;;;;3.70;0.95;;;15.30;99.90;;;;;;5005234;28;20025;-78
2022/08/06 05:46:04;;;;;;;1.27;0.88;;;15.60;99.90;;;;;;5013490;28;20553;-73
2022/08/06 05:48:33;;;;;;;3.88;1.10;;;15.50;99.90;;;;;;5011569;28;20037;-76
2022/08/06 05:51:18;;;;;;;3.08;1.00;;;15.80;99.90;;;;;;5012695;28;20514;-77
2022/08/06 05:53:50;;;;;;;5.20;1.15;;;15.80;99.90;;;;;;4999961;28;20026;-77
2022/08/06 05:56:25;;;;;;;2.55;1.05;;;16.00;99.90;;;;;;5011670;28;20053;-77
2022/08/06 05:58:56;;;;;;;1.48;1.00;;;16.10;99.90;;;;;;5013103;28;20368;-77
2022/08/06 06:01:23;;;;;;;2.35;1.10;;;16.50;99.90;;;;;;5012824;28;20088;-77
2022/08/06 06:03:53;;;;;;;2.15;1.10;;;16.20;99.90;;;;;;5011087;28;20025;-77
2022/08/06 06:06:20;;;;;;;1.48;0.90;;;16.50;99.90;;;;;;5001393;28;20485;-77
2022/08/06 06:08:45;;;;;;;4.07;1.00;;;16.40;99.90;;;;;;5011546;28;20483;-77
2022/08/06 06:11:11;;;;;;;2.25;1.17;;;16.40;99.90;;;;;;5013006;28;20030;-77
2022/08/06 06:13:38;;;;;;;4.75;1.05;;;16.50;99.90;;;;;;5013392;28;20033;-77
2022/08/06 06:16:22;;;;;;;3.08;1.13;;;16.40;99.90;;;;;;5012777;28;20026;-77
2022/08/06 06:18:53;;;;;;;1.77;0.90;;;16.70;99.90;;;;;;5013098;28;20022;-78
2022/08/06 06:21:21;;;;;;;2.45;0.98;;;16.60;99.90;;;;;;5012578;28;20034;-77
2022/08/06 06:23:59;;;;;;;1.73;0.90;;;16.50;99.90;;;;;;5013045;28;20030;-77
2022/08/06 06:26:39;;;;;;;2.00;1.00;;;16.50;99.90;;;;;;5010961;28;20026;-77
2022/08/06 06:29:12;;;;;;;1.83;0.98;;;16.60;99.90;;;;;;5015068;28;20022;-78
2022/08/06 06:31:46;;;;;;;2.00;1.00;;;16.50;99.90;;;;;;5016108;28;20495;-75
2022/08/06 06:34:14;;;;;;;2.25;1.02;;;16.60;99.90;;;;;;5011036;28;20034;-75
2022/08/06 06:37:21;;;;;;;2.33;1.15;;;16.40;99.90;;;;;;4984368;28;20111;-75
2022/08/06 06:40:06;;;;;;;1.35;0.80;;;16.50;99.90;;;;;;5012157;28;20034;-74
2022/08/06 06:42:37;;;;;;;2.35;1.08;;;16.60;99.90;;;;;;4997627;28;20029;-77
2022/08/06 06:45:19;;;;;;;1.75;0.90;;;16.70;99.90;;;;;;5010703;28;20025;-77
2022/08/06 06:48:05;;;;;;;3.45;0.90;;;16.80;99.90;;;;;;5011723;28;20101;-77
2022/08/06 06:50:39;;;;;;;3.65;0.80;;;16.70;99.90;;;;;;5011654;28;20018;-77
2022/08/06 06:53:06;;;;;;;3.30;0.70;;;16.90;99.90;;;;;;5011693;28;20037;-77
2022/08/06 06:55:35;;;;;;;1.65;0.80;;;16.90;99.90;;;;;;5007023;28;20062;-77
2022/08/06 06:58:13;;;;;;;1.63;0.98;;;17.00;99.90;;;;;;5010519;28;20025;-77
2022/08/06 07:00:41;;;;;;;2.40;1.02;;;17.00;99.90;;;;;;4997518;28;20014;-77
2022/08/06 07:03:09;;;;;;;0.75;0.63;;;17.00;99.90;;;;;;5002239;28;20026;-77
2022/08/06 07:05:36;;;;;;;2.28;1.02;;;17.20;99.90;;;;;;5011813;28;20121;-77
2022/08/06 07:08:04;;;;;;;3.40;1.00;;;17.20;99.90;;;;;;5011821;28;20073;-77
2022/08/06 07:10:31;;;;;;;2.85;0.88;;;17.40;99.90;;;;;;5010246;28;20064;-77
2022/08/06 07:12:59;;;;;;;3.50;1.05;;;17.50;99.90;;;;;;5010368;28;20026;-77
2022/08/06 07:15:26;;;;;;;1.50;0.98;;;17.50;99.90;;;;;;5011680;28;20030;-76
2022/08/06 07:17:53;;;;;;;3.95;1.02;;;17.50;99.90;;;;;;5011546;28;20034;-77
2022/08/06 07:20:26;;;;;;;4.15;1.08;;;17.60;99.90;;;;;;5010226;28;20022;-77
2022/08/06 07:22:53;;;;;;;2.83;0.80;;;17.60;99.90;;;;;;5011829;28;20018;-77
2022/08/06 07:25:20;;;;;;;3.25;1.10;;;17.60;99.90;;;;;;5011920;28;20018;-77
2022/08/06 07:27:49;;;;;;;2.80;1.00;;;17.90;99.90;;;;;;5011754;28;20034;-77
2022/08/06 07:30:17;;;;;;;2.88;0.77;;;17.90;99.90;;;;;;4985508;28;20034;-77
2022/08/06 07:32:44;;;;;;;3.55;0.90;;;17.90;99.90;;;;;;5011534;28;20030;-77
2022/08/06 07:35:10;;;;;;;2.28;0.82;;;18.00;99.90;;;;;;5011513;28;20100;-76
2022/08/06 07:37:40;;;;;;;2.38;0.73;;;18.00;99.90;;;;;;5011467;28;20379;-76
2022/08/06 07:40:21;;;;;;;2.70;0.95;;;18.10;99.90;;;;;;5013725;28;20084;-75
2022/08/06 07:42:53;;;;;;;3.75;1.10;;;18.20;99.90;;;;;;5014911;28;20491;-74
2022/08/06 07:45:20;;;;;;;2.70;0.82;;;18.30;99.90;;;;;;5014772;28;20038;-77
2022/08/06 07:47:46;;;;;;;2.22;0.88;;;18.40;99.90;;;;;;5014861;28;20076;-77
2022/08/06 07:50:14;;;;;;;1.75;0.70;;;18.50;99.90;;;;;;5002225;28;20030;-76
2022/08/06 07:52:41;;;;;;;2.17;0.88;;;18.40;99.90;;;;;;5013180;28;20514;-77
2022/08/06 07:55:10;;;;;;;1.58;0.98;;;18.30;99.90;;;;;;5016153;28;20494;-77
2022/08/06 07:57:37;;;;;;;6.15;0.98;;;18.40;99.90;;;;;;5015321;28;20022;-77
2022/08/06 08:00:03;;;;;;;2.92;0.85;;;18.30;99.90;;;;;;5019030;28;20038;-77
2022/08/06 08:02:29;;;;;;;5.65;1.00;;;18.20;99.90;;;;;;5014899;28;20053;-76
2022/08/06 08:07:39;;;;;;;2.15;1.17;;;18.30;99.90;;;;;;4992714;28;20080;-76
2022/08/06 08:10:06;;;;;;;4.75;1.20;;;18.70;99.90;;;;;;5013967;28;20053;-76
2022/08/06 08:12:33;;;;;;;1.70;0.88;;;18.60;99.90;;;;;;5013445;28;20112;-77
2022/08/06 08:14:59;;;;;;;1.42;0.75;;;18.90;99.90;;;;;;5007375;28;20021;-77
